sensor_id;sensor_type;location;lat;lon;timestamp;temperature;humidity
74901;DHT22;63461;51.416;6.758;2023-02-21T00:00:39;9.00;99.90
74901;DHT22;63461;51.416;6.758;2023-02-21T00:03:23;9.00;99.90
74901;DHT22;63461;51.416;6.758;2023-02-21T00:06:08;9.00;99.90
74901;DHT22;63461;51.416;6.758;2023-02-21T00:08:52;9.00;99.90
74901;DHT22;63461;51.416;6.758;2023-02-21T00:11:43;9.00;99.90
74901;DHT22;63461;51.416;6.758;2023-02-21T00:14:27;9.10;99.90
74901;DHT22;63461;51.416;6.758;2023-02-21T00:17:12;9.00;99.90
74901;DHT22;63461;51.416;6.758;2023-02-21T00:19:56;9.00;99.90
74901;DHT22;63461;51.416;6.758;2023-02-21T00:22:41;9.00;99.90
74901;DHT22;63461;51.416;6.758;2023-02-21T00:25:25;9.00;99.90
74901;DHT22;63461;51.416;6.758;2023-02-21T00:28:09;9.00;99.90
74901;DHT22;63461;51.416;6.758;2023-02-21T00:30:53;9.00;99.90
74901;DHT22;63461;51.416;6.758;2023-02-21T00:33:38;9.00;99.90
74901;DHT22;63461;51.416;6.758;2023-02-21T00:36:22;9.00;99.90
74901;DHT22;63461;51.416;6.758;2023-02-21T00:39:06;9.00;99.90
74901;DHT22;63461;51.416;6.758;2023-02-21T00:41:50;9.00;99.90
74901;DHT22;63461;51.416;6.758;2023-02-21T00:44:35;9.00;99.90
74901;DHT22;63461;51.416;6.758;2023-02-21T00:47:19;9.00;99.90
74901;DHT22;63461;51.416;6.758;2023-02-21T00:50:04;9.00;99.90
74901;DHT22;63461;51.416;6.758;2023-02-21T00:52:48;9.00;99.90
74901;DHT22;63461;51.416;6.758;2023-02-21T00:55:33;9.00;99.90
74901;DHT22;63461;51.416;6.758;2023-02-21T00:58:20;9.00;99.90
74901;DHT22;63461;51.416;6.758;2023-02-21T01:01:05;8.90;99.90
74901;DHT22;63461;51.416;6.758;2023-02-21T01:03:49;9.00;99.90
74901;DHT22;63461;51.416;6.758;2023-02-21T01:06:33;9.00;99.90
74901;DHT22;63461;51.416;6.758;2023-02-21T01:09:18;9.00;99.90
74901;DHT22;63461;51.416;6.758;2023-02-21T01:12:02;9.00;99.90
74901;DHT22;63461;51.416;6.758;2023-02-21T01:14:46;9.00;99.90
74901;DHT22;63461;51.416;6.758;2023-02-21T01:17:31;9.00;99.90
74901;DHT22;63461;51.416;6.758;2023-02-21T01:20:15;9.00;99.90
74901;DHT22;63461;51.416;6.758;2023-02-21T01:22:59;9.00;99.90
74901;DHT22;63461;51.416;6.758;2023-02-21T01:25:44;8.90;99.90
74901;DHT22;63461;51.416;6.758;2023-02-21T01:28:28;9.00;99.90
74901;DHT22;63461;51.416;6.758;2023-02-21T01:31:20;9.00;99.90
74901;DHT22;63461;51.416;6.758;2023-02-21T01:34:05;9.10;99.90
74901;DHT22;63461;51.416;6.758;2023-02-21T01:36:50;9.00;99.90
74901;DHT22;63461;51.416;6.758;2023-02-21T01:39:35;9.00;99.90
74901;DHT22;63461;51.416;6.758;2023-02-21T01:42:19;9.00;99.90
74901;DHT22;63461;51.416;6.758;2023-02-21T01:48:08;9.00;99.90
74901;DHT22;63461;51.416;6.758;2023-02-21T01:50:54;8.90;99.90
74901;DHT22;63461;51.416;6.758;2023-02-21T01:53:39;8.90;99.90
74901;DHT22;63461;51.416;6.758;2023-02-21T01:56:27;8.90;99.90
74901;DHT22;63461;51.416;6.758;2023-02-21T01:59:13;8.90;99.90
74901;DHT22;63461;51.416;6.758;2023-02-21T02:02:02;9.00;99.90
74901;DHT22;63461;51.416;6.758;2023-02-21T02:04:49;8.90;99.90
74901;DHT22;63461;51.416;6.758;2023-02-21T02:07:35;9.00;99.90
74901;DHT22;63461;51.416;6.758;2023-02-21T02:10:21;9.00;99.90
74901;DHT22;63461;51.416;6.758;2023-02-21T02:16:24;8.90;99.90
74901;DHT22;63461;51.416;6.758;2023-02-21T02:27:40;8.80;99.90
74901;DHT22;63461;51.416;6.758;2023-02-21T02:35:24;8.90;99.90
74901;DHT22;63461;51.416;6.758;2023-02-21T02:38:26;8.90;99.90
74901;DHT22;63461;51.416;6.758;2023-02-21T02:41:06;8.90;99.90
74901;DHT22;63461;51.416;6.758;2023-02-21T02:43:49;8.90;99.90
74901;DHT22;63461;51.416;6.758;2023-02-21T02:46:29;8.80;99.90
74901;DHT22;63461;51.416;6.758;2023-02-21T02:49:02;8.90;99.90
74901;DHT22;63461;51.416;6.758;2023-02-21T02:51:32;8.80;99.90
74901;DHT22;63461;51.416;6.758;2023-02-21T02:54:00;8.80;99.90
74901;DHT22;63461;51.416;6.758;2023-02-21T02:56:27;8.80;99.90
74901;DHT22;63461;51.416;6.758;2023-02-21T02:59:20;8.80;99.90
74901;DHT22;63461;51.416;6.758;2023-02-21T03:04:52;8.70;99.90
74901;DHT22;63461;51.416;6.758;2023-02-21T03:12:55;8.80;99.90
74901;DHT22;63461;51.416;6.758;2023-02-21T03:18:23;8.80;99.90
74901;DHT22;63461;51.416;6.758;2023-02-21T03:20:55;8.80;99.90
74901;DHT22;63461;51.416;6.758;2023-02-21T03:23:25;8.80;99.90
74901;DHT22;63461;51.416;6.758;2023-02-21T03:25:54;8.80;99.90
74901;DHT22;63461;51.416;6.758;2023-02-21T03:28:23;8.70;99.90
74901;DHT22;63461;51.416;6.758;2023-02-21T03:30:52;8.70;99.90
74901;DHT22;63461;51.416;6.758;2023-02-21T03:33:21;8.80;99.90
74901;DHT22;63461;51.416;6.758;2023-02-21T03:35:48;8.80;99.90
74901;DHT22;63461;51.416;6.758;2023-02-21T03:38:14;8.80;99.90
74901;DHT22;63461;51.416;6.758;2023-02-21T03:40:40;8.80;99.90
74901;DHT22;63461;51.416;6.758;2023-02-21T03:43:06;8.90;99.90
74901;DHT22;63461;51.416;6.758;2023-02-21T03:45:38;8.80;99.90
74901;DHT22;63461;51.416;6.758;2023-02-21T03:48:11;8.80;99.90
74901;DHT22;63461;51.416;6.758;2023-02-21T03:50:39;8.80;99.90
74901;DHT22;63461;51.416;6.758;2023-02-21T03:53:05;8.80;99.90
74901;DHT22;63461;51.416;6.758;2023-02-21T03:55:32;8.80;99.90
74901;DHT22;63461;51.416;6.758;2023-02-21T03:58:00;8.80;99.90
74901;DHT22;63461;51.416;6.758;2023-02-21T04:00:27;8.80;99.90
74901;DHT22;63461;51.416;6.758;2023-02-21T04:02:54;8.70;99.90
74901;DHT22;63461;51.416;6.758;2023-02-21T04:05:33;8.70;99.90
74901;DHT22;63461;51.416;6.758;2023-02-21T04:07:59;8.70;99.90
74901;DHT22;63461;51.416;6.758;2023-02-21T04:10:26;8.70;99.90
74901;DHT22;63461;51.416;6.758;2023-02-21T04:12:52;8.70;99.90
74901;DHT22;63461;51.416;6.758;2023-02-21T04:15:19;8.70;99.90
74901;DHT22;63461;51.416;6.758;2023-02-21T04:17:45;8.80;99.90
74901;DHT22;63461;51.416;6.758;2023-02-21T04:20:13;8.70;99.90
74901;DHT22;63461;51.416;6.758;2023-02-21T04:22:44;8.70;99.90
74901;DHT22;63461;51.416;6.758;2023-02-21T04:25:10;8.80;99.90
74901;DHT22;63461;51.416;6.758;2023-02-21T04:27:42;8.70;99.90
74901;DHT22;63461;51.416;6.758;2023-02-21T04:30:09;8.80;99.90
74901;DHT22;63461;51.416;6.758;2023-02-21T04:32:35;8.80;99.90
74901;DHT22;63461;51.416;6.758;2023-02-21T04:35:06;8.70;99.90
74901;DHT22;63461;51.416;6.758;2023-02-21T04:37:32;8.80;99.90
74901;DHT22;63461;51.416;6.758;2023-02-21T04:39:58;8.90;99.90
74901;DHT22;63461;51.416;6.758;2023-02-21T04:42:24;8.80;99.90
74901;DHT22;63461;51.416;6.758;2023-02-21T04:44:51;8.80;99.90
74901;DHT22;63461;51.416;6.758;2023-02-21T04:47:16;8.70;99.90
74901;DHT22;63461;51.416;6.758;2023-02-21T04:49:42;8.80;99.90
74901;DHT22;63461;51.416;6.758;2023-02-21T04:52:08;8.80;99.90
74901;DHT22;63461;51.416;6.758;2023-02-21T04:54:34;8.80;99.90
74901;DHT22;63461;51.416;6.758;2023-02-21T04:56:59;8.90;99.90
74901;DHT22;63461;51.416;6.758;2023-02-21T04:59:25;8.80;99.90
74901;DHT22;63461;51.416;6.758;2023-02-21T05:01:52;8.80;99.90
74901;DHT22;63461;51.416;6.758;2023-02-21T05:04:17;8.80;99.90
74901;DHT22;63461;51.416;6.758;2023-02-21T05:06:43;8.70;99.90
74901;DHT22;63461;51.416;6.758;2023-02-21T05:09:09;8.70;99.90
74901;DHT22;63461;51.416;6.758;2023-02-21T05:11:35;8.70;99.90
74901;DHT22;63461;51.416;6.758;2023-02-21T05:14:00;8.70;99.90
74901;DHT22;63461;51.416;6.758;2023-02-21T05:16:26;8.70;99.90
74901;DHT22;63461;51.416;6.758;2023-02-21T05:18:52;8.80;99.90
74901;DHT22;63461;51.416;6.758;2023-02-21T05:21:19;8.70;99.90
74901;DHT22;63461;51.416;6.758;2023-02-21T05:23:45;8.70;99.90
74901;DHT22;63461;51.416;6.758;2023-02-21T05:26:23;8.70;99.90
74901;DHT22;63461;51.416;6.758;2023-02-21T05:28:49;8.70;99.90
74901;DHT22;63461;51.416;6.758;2023-02-21T05:31:16;8.70;99.90
74901;DHT22;63461;51.416;6.758;2023-02-21T05:33:41;8.80;99.90
74901;DHT22;63461;51.416;6.758;2023-02-21T05:36:07;8.70;99.90
74901;DHT22;63461;51.416;6.758;2023-02-21T05:38:44;8.70;99.90
74901;DHT22;63461;51.416;6.758;2023-02-21T05:41:10;8.70;99.90
74901;DHT22;63461;51.416;6.758;2023-02-21T05:43:36;8.60;99.90
74901;DHT22;63461;51.416;6.758;2023-02-21T05:46:02;8.60;99.90
74901;DHT22;63461;51.416;6.758;2023-02-21T05:48:28;8.60;99.90
74901;DHT22;63461;51.416;6.758;2023-02-21T05:50:53;8.60;99.90
74901;DHT22;63461;51.416;6.758;2023-02-21T05:53:19;8.70;99.90
74901;DHT22;63461;51.416;6.758;2023-02-21T05:55:45;8.70;99.90
74901;DHT22;63461;51.416;6.758;2023-02-21T05:58:10;8.70;99.90
74901;DHT22;63461;51.416;6.758;2023-02-21T06:00:36;8.70;99.90
74901;DHT22;63461;51.416;6.758;2023-02-21T06:03:02;8.70;99.90
74901;DHT22;63461;51.416;6.758;2023-02-21T06:05:28;8.80;99.90
74901;DHT22;63461;51.416;6.758;2023-02-21T06:07:54;8.80;99.90
74901;DHT22;63461;51.416;6.758;2023-02-21T06:10:20;8.80;99.90
74901;DHT22;63461;51.416;6.758;2023-02-21T06:12:45;8.70;99.90
74901;DHT22;63461;51.416;6.758;2023-02-21T06:15:11;8.70;99.90
74901;DHT22;63461;51.416;6.758;2023-02-21T06:17:38;8.80;99.90
74901;DHT22;63461;51.416;6.758;2023-02-21T06:20:05;8.80;99.90
74901;DHT22;63461;51.416;6.758;2023-02-21T06:22:31;8.80;99.90
74901;DHT22;63461;51.416;6.758;2023-02-21T06:24:57;8.70;99.90
74901;DHT22;63461;51.416;6.758;2023-02-21T06:27:23;8.70;99.90
74901;DHT22;63461;51.416;6.758;2023-02-21T06:29:48;8.70;99.90
74901;DHT22;63461;51.416;6.758;2023-02-21T06:32:14;8.80;99.90
74901;DHT22;63461;51.416;6.758;2023-02-21T06:34:42;8.70;99.90
74901;DHT22;63461;51.416;6.758;2023-02-21T06:37:08;8.70;99.90
74901;DHT22;63461;51.416;6.758;2023-02-21T06:39:34;8.70;99.90
74901;DHT22;63461;51.416;6.758;2023-02-21T06:42:00;8.70;99.90
74901;DHT22;63461;51.416;6.758;2023-02-21T06:44:25;8.80;99.90
74901;DHT22;63461;51.416;6.758;2023-02-21T06:46:51;8.80;99.90
74901;DHT22;63461;51.416;6.758;2023-02-21T06:49:20;8.80;99.90
74901;DHT22;63461;51.416;6.758;2023-02-21T06:51:46;8.80;99.90
74901;DHT22;63461;51.416;6.758;2023-02-21T06:54:12;8.90;99.90
74901;DHT22;63461;51.416;6.758;2023-02-21T06:56:38;8.80;99.90
74901;DHT22;63461;51.416;6.758;2023-02-21T06:59:04;8.70;99.90
74901;DHT22;63461;51.416;6.758;2023-02-21T07:01:30;8.60;99.90
74901;DHT22;63461;51.416;6.758;2023-02-21T07:03:57;8.70;99.90
74901;DHT22;63461;51.416;6.758;2023-02-21T07:06:24;8.70;99.90
74901;DHT22;63461;51.416;6.758;2023-02-21T07:08:50;8.70;99.90
74901;DHT22;63461;51.416;6.758;2023-02-21T07:11:17;8.70;99.90
74901;DHT22;63461;51.416;6.758;2023-02-21T07:13:49;8.70;99.90
74901;DHT22;63461;51.416;6.758;2023-02-21T07:16:15;8.70;99.90
74901;DHT22;63461;51.416;6.758;2023-02-21T07:18:43;8.70;99.90
74901;DHT22;63461;51.416;6.758;2023-02-21T07:21:10;8.80;99.90
74901;DHT22;63461;51.416;6.758;2023-02-21T07:23:36;8.70;99.90
74901;DHT22;63461;51.416;6.758;2023-02-21T07:26:02;8.70;99.90
74901;DHT22;63461;51.416;6.758;2023-02-21T07:28:28;8.70;99.90
74901;DHT22;63461;51.416;6.758;2023-02-21T07:30:54;8.70;99.90
74901;DHT22;63461;51.416;6.758;2023-02-21T07:33:19;8.80;99.90
74901;DHT22;63461;51.416;6.758;2023-02-21T07:35:45;8.80;99.90
74901;DHT22;63461;51.416;6.758;2023-02-21T07:38:25;8.70;99.90
74901;DHT22;63461;51.416;6.758;2023-02-21T07:40:53;8.80;99.90
74901;DHT22;63461;51.416;6.758;2023-02-21T07:43:19;8.80;99.90
74901;DHT22;63461;51.416;6.758;2023-02-21T07:45:45;8.70;99.90
74901;DHT22;63461;51.416;6.758;2023-02-21T07:48:11;8.60;99.90
74901;DHT22;63461;51.416;6.758;2023-02-21T07:50:42;8.60;99.90
74901;DHT22;63461;51.416;6.758;2023-02-21T07:53:09;8.60;99.90
74901;DHT22;63461;51.416;6.758;2023-02-21T07:55:35;8.50;99.90
74901;DHT22;63461;51.416;6.758;2023-02-21T07:58:02;8.60;99.90
74901;DHT22;63461;51.416;6.758;2023-02-21T08:00:28;8.60;99.90
74901;DHT22;63461;51.416;6.758;2023-02-21T08:02:53;8.60;99.90
74901;DHT22;63461;51.416;6.758;2023-02-21T08:05:20;8.70;99.90
74901;DHT22;63461;51.416;6.758;2023-02-21T08:07:46;8.70;99.90
74901;DHT22;63461;51.416;6.758;2023-02-21T08:10:17;8.70;99.90
74901;DHT22;63461;51.416;6.758;2023-02-21T08:12:43;8.60;99.90
74901;DHT22;63461;51.416;6.758;2023-02-21T08:15:09;8.70;99.90
74901;DHT22;63461;51.416;6.758;2023-02-21T08:17:35;8.70;99.90
74901;DHT22;63461;51.416;6.758;2023-02-21T08:20:01;8.70;99.90
74901;DHT22;63461;51.416;6.758;2023-02-21T08:22:27;8.80;99.90
74901;DHT22;63461;51.416;6.758;2023-02-21T08:24:53;8.70;99.90
74901;DHT22;63461;51.416;6.758;2023-02-21T08:27:19;8.90;99.90
74901;DHT22;63461;51.416;6.758;2023-02-21T08:29:50;8.80;99.90
74901;DHT22;63461;51.416;6.758;2023-02-21T08:32:17;8.90;99.90
74901;DHT22;63461;51.416;6.758;2023-02-21T08:34:47;8.90;99.90
74901;DHT22;63461;51.416;6.758;2023-02-21T08:37:13;8.80;99.90
74901;DHT22;63461;51.416;6.758;2023-02-21T08:39:51;8.70;99.90
74901;DHT22;63461;51.416;6.758;2023-02-21T08:42:18;8.70;99.90
74901;DHT22;63461;51.416;6.758;2023-02-21T08:44:45;8.70;99.90
74901;DHT22;63461;51.416;6.758;2023-02-21T08:47:12;8.70;99.90
74901;DHT22;63461;51.416;6.758;2023-02-21T08:49:38;8.70;99.90
74901;DHT22;63461;51.416;6.758;2023-02-21T08:52:06;8.80;99.90
74901;DHT22;63461;51.416;6.758;2023-02-21T08:54:32;8.80;99.90
74901;DHT22;63461;51.416;6.758;2023-02-21T08:56:58;8.90;99.90
74901;DHT22;63461;51.416;6.758;2023-02-21T08:59:24;8.90;99.90
74901;DHT22;63461;51.416;6.758;2023-02-21T09:01:52;8.90;99.90
74901;DHT22;63461;51.416;6.758;2023-02-21T09:04:18;9.00;99.90
74901;DHT22;63461;51.416;6.758;2023-02-21T09:06:43;9.00;99.90
74901;DHT22;63461;51.416;6.758;2023-02-21T09:09:09;9.00;99.90
74901;DHT22;63461;51.416;6.758;2023-02-21T09:11:38;9.00;99.90
74901;DHT22;63461;51.416;6.758;2023-02-21T09:14:04;9.00;99.90
74901;DHT22;63461;51.416;6.758;2023-02-21T09:16:31;8.90;99.90
74901;DHT22;63461;51.416;6.758;2023-02-21T09:18:58;9.00;99.90
74901;DHT22;63461;51.416;6.758;2023-02-21T09:21:26;9.00;99.90
74901;DHT22;63461;51.416;6.758;2023-02-21T09:23:54;9.00;99.90
74901;DHT22;63461;51.416;6.758;2023-02-21T09:26:21;8.80;99.90
74901;DHT22;63461;51.416;6.758;2023-02-21T09:28:49;8.80;99.90
74901;DHT22;63461;51.416;6.758;2023-02-21T09:31:15;8.90;99.90
74901;DHT22;63461;51.416;6.758;2023-02-21T09:33:42;8.80;99.90
74901;DHT22;63461;51.416;6.758;2023-02-21T09:36:09;9.00;99.90
74901;DHT22;63461;51.416;6.758;2023-02-21T09:38:35;9.00;99.90
74901;DHT22;63461;51.416;6.758;2023-02-21T09:41:03;8.90;99.90
74901;DHT22;63461;51.416;6.758;2023-02-21T09:43:44;9.00;99.90
74901;DHT22;63461;51.416;6.758;2023-02-21T09:46:18;9.10;99.90
74901;DHT22;63461;51.416;6.758;2023-02-21T09:48:45;9.10;99.90
74901;DHT22;63461;51.416;6.758;2023-02-21T09:51:12;9.00;99.90
74901;DHT22;63461;51.416;6.758;2023-02-21T09:53:41;9.00;99.90
74901;DHT22;63461;51.416;6.758;2023-02-21T09:56:32;9.00;99.90
74901;DHT22;63461;51.416;6.758;2023-02-21T09:58:59;9.10;99.90
74901;DHT22;63461;51.416;6.758;2023-02-21T10:04:27;9.10;99.90
74901;DHT22;63461;51.416;6.758;2023-02-21T10:07:09;9.20;99.90
74901;DHT22;63461;51.416;6.758;2023-02-21T10:12:23;9.20;99.90
74901;DHT22;63461;51.416;6.758;2023-02-21T10:17:48;9.20;99.90
74901;DHT22;63461;51.416;6.758;2023-02-21T10:23:01;9.50;99.90
74901;DHT22;63461;51.416;6.758;2023-02-21T10:25:30;9.60;99.90
74901;DHT22;63461;51.416;6.758;2023-02-21T10:27:58;9.70;99.90
74901;DHT22;63461;51.416;6.758;2023-02-21T10:30:36;9.70;99.90
74901;DHT22;63461;51.416;6.758;2023-02-21T10:33:03;9.60;99.90
74901;DHT22;63461;51.416;6.758;2023-02-21T10:35:42;9.60;99.90
74901;DHT22;63461;51.416;6.758;2023-02-21T10:38:13;9.80;99.90
74901;DHT22;63461;51.416;6.758;2023-02-21T10:40:46;9.80;99.90
74901;DHT22;63461;51.416;6.758;2023-02-21T10:43:30;9.90;99.90
74901;DHT22;63461;51.416;6.758;2023-02-21T10:46:02;9.90;99.90
74901;DHT22;63461;51.416;6.758;2023-02-21T10:48:35;9.70;99.90
74901;DHT22;63461;51.416;6.758;2023-02-21T10:53:30;9.60;99.90
74901;DHT22;63461;51.416;6.758;2023-02-21T10:58:49;9.80;99.90
74901;DHT22;63461;51.416;6.758;2023-02-21T11:01:31;9.80;99.90
74901;DHT22;63461;51.416;6.758;2023-02-21T11:04:00;9.60;99.90
74901;DHT22;63461;51.416;6.758;2023-02-21T11:08:56;9.80;99.90
74901;DHT22;63461;51.416;6.758;2023-02-21T11:11:41;9.90;99.90
74901;DHT22;63461;51.416;6.758;2023-02-21T11:16:42;10.00;99.90
74901;DHT22;63461;51.416;6.758;2023-02-21T11:19:16;10.20;99.90
74901;DHT22;63461;51.416;6.758;2023-02-21T11:21:41;10.20;99.90
74901;DHT22;63461;51.416;6.758;2023-02-21T11:24:18;10.20;99.90
74901;DHT22;63461;51.416;6.758;2023-02-21T11:26:51;10.20;99.90
74901;DHT22;63461;51.416;6.758;2023-02-21T11:29:22;10.10;99.90
74901;DHT22;63461;51.416;6.758;2023-02-21T11:31:53;10.00;99.90
74901;DHT22;63461;51.416;6.758;2023-02-21T11:34:20;9.90;99.90
74901;DHT22;63461;51.416;6.758;2023-02-21T11:36:47;9.90;99.90
74901;DHT22;63461;51.416;6.758;2023-02-21T11:39:22;9.90;99.90
74901;DHT22;63461;51.416;6.758;2023-02-21T11:41:55;10.00;99.90
74901;DHT22;63461;51.416;6.758;2023-02-21T11:44:40;10.00;99.90
74901;DHT22;63461;51.416;6.758;2023-02-21T11:47:27;10.20;99.90
74901;DHT22;63461;51.416;6.758;2023-02-21T11:50:09;10.10;99.90
74901;DHT22;63461;51.416;6.758;2023-02-21T11:55:24;10.10;99.90
74901;DHT22;63461;51.416;6.758;2023-02-21T11:59:15;10.10;99.90
74901;DHT22;63461;51.416;6.758;2023-02-21T12:01:15;10.10;99.90
74901;DHT22;63461;51.416;6.758;2023-02-21T12:09:30;10.00;99.90
74901;DHT22;63461;51.416;6.758;2023-02-21T12:12:04;10.10;99.90
74901;DHT22;63461;51.416;6.758;2023-02-21T12:15:16;10.10;99.90
74901;DHT22;63461;51.416;6.758;2023-02-21T12:24:22;10.10;99.90
74901;DHT22;63461;51.416;6.758;2023-02-21T12:35:48;10.20;99.90
74901;DHT22;63461;51.416;6.758;2023-02-21T12:38:38;10.20;99.90
74901;DHT22;63461;51.416;6.758;2023-02-21T12:44:21;10.20;99.90
74901;DHT22;63461;51.416;6.758;2023-02-21T12:49:36;10.20;99.90
74901;DHT22;63461;51.416;6.758;2023-02-21T12:52:13;10.20;99.90
74901;DHT22;63461;51.416;6.758;2023-02-21T12:58:08;10.30;99.90
74901;DHT22;63461;51.416;6.758;2023-02-21T13:06:05;10.30;99.90
74901;DHT22;63461;51.416;6.758;2023-02-21T13:09:00;10.30;99.90
74901;DHT22;63461;51.416;6.758;2023-02-21T13:11:56;10.30;99.90
74901;DHT22;63461;51.416;6.758;2023-02-21T13:14:47;10.20;99.90
74901;DHT22;63461;51.416;6.758;2023-02-21T13:17:14;10.20;99.90
74901;DHT22;63461;51.416;6.758;2023-02-21T13:19:54;10.20;99.90
74901;DHT22;63461;51.416;6.758;2023-02-21T13:28:59;10.10;99.90
74901;DHT22;63461;51.416;6.758;2023-02-21T13:31:33;10.10;99.90
74901;DHT22;63461;51.416;6.758;2023-02-21T13:34:08;10.20;99.90
74901;DHT22;63461;51.416;6.758;2023-02-21T13:41:36;10.20;99.90
74901;DHT22;63461;51.416;6.758;2023-02-21T13:44:09;10.30;99.90
74901;DHT22;63461;51.416;6.758;2023-02-21T13:57:51;10.20;99.90
74901;DHT22;63461;51.416;6.758;2023-02-21T14:08:28;10.20;99.90
74901;DHT22;63461;51.416;6.758;2023-02-21T14:13:48;10.20;99.90
74901;DHT22;63461;51.416;6.758;2023-02-21T14:16:18;10.10;99.90
74901;DHT22;63461;51.416;6.758;2023-02-21T14:19:07;10.20;99.90
74901;DHT22;63461;51.416;6.758;2023-02-21T14:26:39;10.20;99.90
74901;DHT22;63461;51.416;6.758;2023-02-21T14:29:11;10.20;99.90
74901;DHT22;63461;51.416;6.758;2023-02-21T14:37:05;10.20;99.90
74901;DHT22;63461;51.416;6.758;2023-02-21T14:39:43;10.20;99.90
74901;DHT22;63461;51.416;6.758;2023-02-21T14:56:30;10.10;99.90
74901;DHT22;63461;51.416;6.758;2023-02-21T15:06:45;10.10;99.90
74901;DHT22;63461;51.416;6.758;2023-02-21T15:09:20;10.10;99.90
74901;DHT22;63461;51.416;6.758;2023-02-21T15:11:47;10.10;99.90
74901;DHT22;63461;51.416;6.758;2023-02-21T15:14:25;10.10;99.90
74901;DHT22;63461;51.416;6.758;2023-02-21T15:16:57;10.10;99.90
74901;DHT22;63461;51.416;6.758;2023-02-21T15:19:30;10.00;99.90
74901;DHT22;63461;51.416;6.758;2023-02-21T15:22:21;10.10;99.90
74901;DHT22;63461;51.416;6.758;2023-02-21T15:27:32;10.00;99.90
74901;DHT22;63461;51.416;6.758;2023-02-21T15:30:17;10.00;99.90
74901;DHT22;63461;51.416;6.758;2023-02-21T15:32:50;10.00;99.90
74901;DHT22;63461;51.416;6.758;2023-02-21T15:35:21;10.00;99.90
74901;DHT22;63461;51.416;6.758;2023-02-21T15:37:47;10.00;99.90
74901;DHT22;63461;51.416;6.758;2023-02-21T15:40:20;10.00;99.90
74901;DHT22;63461;51.416;6.758;2023-02-21T15:42:48;10.00;99.90
74901;DHT22;63461;51.416;6.758;2023-02-21T15:45:29;9.90;99.90
74901;DHT22;63461;51.416;6.758;2023-02-21T15:47:57;9.90;99.90
74901;DHT22;63461;51.416;6.758;2023-02-21T15:50:33;9.90;99.90
74901;DHT22;63461;51.416;6.758;2023-02-21T15:53:33;10.00;99.90
74901;DHT22;63461;51.416;6.758;2023-02-21T15:56:34;10.00;99.90
74901;DHT22;63461;51.416;6.758;2023-02-21T16:01:35;9.90;99.90
74901;DHT22;63461;51.416;6.758;2023-02-21T16:04:21;9.90;99.90
74901;DHT22;63461;51.416;6.758;2023-02-21T16:06:58;9.90;99.90
74901;DHT22;63461;51.416;6.758;2023-02-21T16:09:27;9.90;99.90
74901;DHT22;63461;51.416;6.758;2023-02-21T16:12:06;9.90;99.90
74901;DHT22;63461;51.416;6.758;2023-02-21T16:14:46;9.90;99.90
74901;DHT22;63461;51.416;6.758;2023-02-21T16:19:50;9.90;99.90
74901;DHT22;63461;51.416;6.758;2023-02-21T16:22:33;9.90;99.90
74901;DHT22;63461;51.416;6.758;2023-02-21T16:27:38;9.90;99.90
74901;DHT22;63461;51.416;6.758;2023-02-21T16:30:09;9.90;99.90
74901;DHT22;63461;51.416;6.758;2023-02-21T16:32:36;9.90;99.90
74901;DHT22;63461;51.416;6.758;2023-02-21T16:35:04;9.80;99.90
74901;DHT22;63461;51.416;6.758;2023-02-21T16:37:30;9.90;99.90
74901;DHT22;63461;51.416;6.758;2023-02-21T16:39:56;9.80;99.90
74901;DHT22;63461;51.416;6.758;2023-02-21T16:42:22;9.80;99.90
74901;DHT22;63461;51.416;6.758;2023-02-21T16:44:48;9.80;99.90
74901;DHT22;63461;51.416;6.758;2023-02-21T16:47:15;9.80;99.90
74901;DHT22;63461;51.416;6.758;2023-02-21T16:49:42;9.80;99.90
74901;DHT22;63461;51.416;6.758;2023-02-21T16:52:16;9.80;99.90
74901;DHT22;63461;51.416;6.758;2023-02-21T16:54:42;9.90;99.90
74901;DHT22;63461;51.416;6.758;2023-02-21T16:57:09;9.80;99.90
74901;DHT22;63461;51.416;6.758;2023-02-21T16:59:38;9.80;99.90
74901;DHT22;63461;51.416;6.758;2023-02-21T17:02:04;9.70;99.90
74901;DHT22;63461;51.416;6.758;2023-02-21T17:04:31;9.80;99.90
74901;DHT22;63461;51.416;6.758;2023-02-21T17:07:02;9.80;99.90
74901;DHT22;63461;51.416;6.758;2023-02-21T17:09:30;9.80;99.90
74901;DHT22;63461;51.416;6.758;2023-02-21T17:11:59;9.80;99.90
74901;DHT22;63461;51.416;6.758;2023-02-21T17:14:25;9.80;99.90
74901;DHT22;63461;51.416;6.758;2023-02-21T17:16:51;9.80;99.90
74901;DHT22;63461;51.416;6.758;2023-02-21T17:19:19;9.70;99.90
74901;DHT22;63461;51.416;6.758;2023-02-21T17:21:46;9.70;99.90
74901;DHT22;63461;51.416;6.758;2023-02-21T17:24:13;9.70;99.90
74901;DHT22;63461;51.416;6.758;2023-02-21T17:26:39;9.70;99.90
74901;DHT22;63461;51.416;6.758;2023-02-21T17:29:06;9.60;99.90
74901;DHT22;63461;51.416;6.758;2023-02-21T17:31:32;9.60;99.90
74901;DHT22;63461;51.416;6.758;2023-02-21T17:33:58;9.70;99.90
74901;DHT22;63461;51.416;6.758;2023-02-21T17:36:26;9.70;99.90
74901;DHT22;63461;51.416;6.758;2023-02-21T17:38:52;9.70;99.90
74901;DHT22;63461;51.416;6.758;2023-02-21T17:41:19;9.70;99.90
74901;DHT22;63461;51.416;6.758;2023-02-21T17:43:45;9.70;99.90
74901;DHT22;63461;51.416;6.758;2023-02-21T17:46:13;9.70;99.90
74901;DHT22;63461;51.416;6.758;2023-02-21T17:48:41;9.70;99.90
74901;DHT22;63461;51.416;6.758;2023-02-21T17:51:07;9.70;99.90
74901;DHT22;63461;51.416;6.758;2023-02-21T17:53:33;9.70;99.90
74901;DHT22;63461;51.416;6.758;2023-02-21T17:55:59;9.70;99.90
74901;DHT22;63461;51.416;6.758;2023-02-21T17:58:26;9.60;99.90
74901;DHT22;63461;51.416;6.758;2023-02-21T18:00:52;9.70;99.90
74901;DHT22;63461;51.416;6.758;2023-02-21T18:03:22;9.70;99.90
74901;DHT22;63461;51.416;6.758;2023-02-21T18:05:48;9.70;99.90
74901;DHT22;63461;51.416;6.758;2023-02-21T18:08:15;9.60;99.90
74901;DHT22;63461;51.416;6.758;2023-02-21T18:10:41;9.60;99.90
74901;DHT22;63461;51.416;6.758;2023-02-21T18:13:20;9.70;99.90
74901;DHT22;63461;51.416;6.758;2023-02-21T18:15:46;9.70;99.90
74901;DHT22;63461;51.416;6.758;2023-02-21T18:18:12;9.70;99.90
74901;DHT22;63461;51.416;6.758;2023-02-21T18:20:39;9.60;99.90
74901;DHT22;63461;51.416;6.758;2023-02-21T18:23:05;9.60;99.90
74901;DHT22;63461;51.416;6.758;2023-02-21T18:25:34;9.60;99.90
74901;DHT22;63461;51.416;6.758;2023-02-21T18:28:01;9.60;99.90
74901;DHT22;63461;51.416;6.758;2023-02-21T18:30:27;9.60;99.90
74901;DHT22;63461;51.416;6.758;2023-02-21T18:32:53;9.70;99.90
74901;DHT22;63461;51.416;6.758;2023-02-21T18:35:19;9.70;99.90
74901;DHT22;63461;51.416;6.758;2023-02-21T18:37:45;9.60;99.90
74901;DHT22;63461;51.416;6.758;2023-02-21T18:40:16;9.60;99.90
74901;DHT22;63461;51.416;6.758;2023-02-21T18:42:43;9.60;99.90
74901;DHT22;63461;51.416;6.758;2023-02-21T18:45:10;9.70;99.90
74901;DHT22;63461;51.416;6.758;2023-02-21T18:47:41;9.70;99.90
74901;DHT22;63461;51.416;6.758;2023-02-21T18:50:07;9.70;99.90
74901;DHT22;63461;51.416;6.758;2023-02-21T18:52:33;9.70;99.90
74901;DHT22;63461;51.416;6.758;2023-02-21T18:54:59;9.70;99.90
74901;DHT22;63461;51.416;6.758;2023-02-21T18:57:28;9.60;99.90
74901;DHT22;63461;51.416;6.758;2023-02-21T18:59:55;9.70;99.90